Terminal Aerodrome Forecast
Issued by NWS Sterling, VA

Current Version | Previous Version | Text Only | Print | Product List | Glossary Off
Versions: 1 2 3 4 5 6 7 8 9 10 11 12 13 14 15 16 17 18 19 20 21 22 23 24 25 26

000
FTUS41 KLWX 271921 AAC
TAFIAD
TAF AMD
KIAD 271921Z 2719/2824 33010G18KT P6SM -SHRA VCTS BKN050CB BKN130
      TEMPO 2719/2720 VRB30KT 3SM TSRA
     FM272000 22008KT P6SM VCTS BKN050CB BKN130
     FM280100 19006KT P6SM SCT050 BKN200
     FM280700 20005KT 5SM BR SCT050 BKN200
     FM281000 22004KT 3SM BR SCT050 BKN200
     FM281400 32004KT 3SM BR BKN050
     FM281600 34005KT P6SM BKN050=

USA.gov is the U.S. government's official web portal to all federal, state and local government web resources and services.